Alesund/Vigra, Norway

4:18 AM CET on February 21, 2017 (GMT +0100)
Giske | | Change Station

Elev 0 ft 62.58 °N, 6.12 °E | Updated 1 minute ago

Rain
Rain
39.0 °F
Feels Like 33 °F
N
9.3
Wind Variable Wind from West
Gusts 14.9 mph

Today
High -- | Low -- °F
--% Chance of Precip.
Yesterday
High -- | Low -- °F
Precip. -- in
Pressure 29.15 in
Visibility -9999.0 miles
Clouds
Windchill 33 °F
Dew Point 38 °F
Humidity 95%
Rainfall 0.12 in
Snow Depth Not available.
8:04 AM 5:34 PM
Waning Crescent, 29% visible
METAR ENML 210250Z AUTO 26002KT 3100NDV -SN VV010 00/M00 Q0987
Pressure 29.15 in
Visibility -9999.0 miles
Clouds
Windchill 33 °F
Dew Point 38 °F
Humidity 95%
Rainfall 0.12 in
Snow Depth Not available.
8:04 AM 5:34 PM
Waning Crescent, 29% visible
METAR ENML 210250Z AUTO 26002KT 3100NDV -SN VV010 00/M00 Q0987

Get Your Daily Forecast Email!

Thanks for signing up!

Be on the lookout for a verification email in your inbox.

You'll start receiving the daily forecast at 8 AM.

×

10-Day Weather Forecast

×

Almanac

Astronomy

Feb. 21, 2017 Rise Set
Actual Time
Civil Twilight
Nautical Twilight
Astronomical Twilight
Moon
Length of Visible Light
Length of Day
Tomorrow will be .
, % of the Moon is Illuminated

Today's Extremes

Country Highs Country Lows

Community

WunderPhotos

Upload Photos

1,962,540 photos uploaded!

WunderBlog® & News

Nearby

Air Quality

  Air Quality AQ Index Pollutant
Not available.

Snow Depth

Station Depth Elevation

Earthquake Activity

City Distance Mag. Time & Date
Minimum magnitude displayed is 2.5.

Coastal Water Temperatures

Place Temperature

Stations

Nearby Weather Stations

Station Location Temp. Windchill Dew Point Humidity Wind Precip. Elev Updated Type